sensor_id;sensor_type;location;lat;lon;timestamp;P1;durP1;ratioP1;P2;durP2;ratioP2
38937;SDS011;24727;51.974;20.868;2023-04-01T00:01:09;8.63;;;6.15;;
38937;SDS011;24727;51.974;20.868;2023-04-01T00:03:38;12.52;;;7.53;;
38937;SDS011;24727;51.974;20.868;2023-04-01T00:06:06;10.43;;;6.40;;
38937;SDS011;24727;51.974;20.868;2023-04-01T00:08:32;9.63;;;6.38;;
38937;SDS011;24727;51.974;20.868;2023-04-01T00:10:59;11.27;;;6.60;;
38937;SDS011;24727;51.974;20.868;2023-04-01T00:13:26;12.02;;;6.95;;
38937;SDS011;24727;51.974;20.868;2023-04-01T00:15:53;8.45;;;5.32;;
38937;SDS011;24727;51.974;20.868;2023-04-01T00:18:20;11.93;;;6.90;;
38937;SDS011;24727;51.974;20.868;2023-04-01T00:20:48;11.98;;;6.70;;
38937;SDS011;24727;51.974;20.868;2023-04-01T00:23:16;8.77;;;5.35;;
38937;SDS011;24727;51.974;20.868;2023-04-01T00:25:43;9.57;;;5.50;;
38937;SDS011;24727;51.974;20.868;2023-04-01T00:28:11;11.43;;;6.22;;
38937;SDS011;24727;51.974;20.868;2023-04-01T00:30:37;8.07;;;6.00;;
38937;SDS011;24727;51.974;20.868;2023-04-01T00:33:03;9.90;;;5.43;;
38937;SDS011;24727;51.974;20.868;2023-04-01T00:35:30;8.27;;;5.40;;
38937;SDS011;24727;51.974;20.868;2023-04-01T00:37:58;9.25;;;6.10;;
38937;SDS011;24727;51.974;20.868;2023-04-01T00:40:29;9.48;;;6.05;;
38937;SDS011;24727;51.974;20.868;2023-04-01T00:42:57;10.35;;;6.55;;
38937;SDS011;24727;51.974;20.868;2023-04-01T00:45:34;14.43;;;7.13;;
38937;SDS011;24727;51.974;20.868;2023-04-01T00:50:40;14.90;;;8.63;;
38937;SDS011;24727;51.974;20.868;2023-04-01T00:53:11;16.65;;;8.63;;
38937;SDS011;24727;51.974;20.868;2023-04-01T00:55:39;11.00;;;7.93;;
38937;SDS011;24727;51.974;20.868;2023-04-01T00:58:13;19.13;;;9.70;;
38937;SDS011;24727;51.974;20.868;2023-04-01T01:00:42;15.18;;;9.15;;
38937;SDS011;24727;51.974;20.868;2023-04-01T01:03:08;15.50;;;9.18;;
38937;SDS011;24727;51.974;20.868;2023-04-01T01:06:18;15.52;;;8.18;;
38937;SDS011;24727;51.974;20.868;2023-04-01T01:08:39;12.23;;;8.30;;
38937;SDS011;24727;51.974;20.868;2023-04-01T01:11:19;14.35;;;8.82;;
38937;SDS011;24727;51.974;20.868;2023-04-01T01:14:15;15.63;;;8.93;;
38937;SDS011;24727;51.974;20.868;2023-04-01T01:16:54;16.88;;;9.13;;
38937;SDS011;24727;51.974;20.868;2023-04-01T01:20:08;18.27;;;9.63;;
38937;SDS011;24727;51.974;20.868;2023-04-01T01:22:49;21.73;;;10.75;;
38937;SDS011;24727;51.974;20.868;2023-04-01T01:31:20;19.30;;;9.82;;
38937;SDS011;24727;51.974;20.868;2023-04-01T01:36:28;16.33;;;9.90;;
38937;SDS011;24727;51.974;20.868;2023-04-01T01:39:00;23.10;;;11.45;;
38937;SDS011;24727;51.974;20.868;2023-04-01T01:41:30;18.17;;;10.93;;
38937;SDS011;24727;51.974;20.868;2023-04-01T01:43:57;20.35;;;11.82;;
38937;SDS011;24727;51.974;20.868;2023-04-01T01:46:25;18.63;;;10.35;;
38937;SDS011;24727;51.974;20.868;2023-04-01T01:48:54;17.15;;;10.20;;
38937;SDS011;24727;51.974;20.868;2023-04-01T01:51:22;14.27;;;9.00;;
38937;SDS011;24727;51.974;20.868;2023-04-01T01:53:49;13.93;;;8.75;;
38937;SDS011;24727;51.974;20.868;2023-04-01T01:56:16;12.25;;;7.93;;
38937;SDS011;24727;51.974;20.868;2023-04-01T01:58:46;13.32;;;9.20;;
38937;SDS011;24727;51.974;20.868;2023-04-01T02:01:17;15.63;;;9.05;;
38937;SDS011;24727;51.974;20.868;2023-04-01T02:03:51;15.50;;;8.55;;
38937;SDS011;24727;51.974;20.868;2023-04-01T02:06:19;14.35;;;8.05;;
38937;SDS011;24727;51.974;20.868;2023-04-01T02:08:56;15.68;;;9.25;;
38937;SDS011;24727;51.974;20.868;2023-04-01T02:11:28;19.38;;;10.48;;
38937;SDS011;24727;51.974;20.868;2023-04-01T02:14:15;16.55;;;10.40;;
38937;SDS011;24727;51.974;20.868;2023-04-01T02:19:16;17.48;;;11.07;;
38937;SDS011;24727;51.974;20.868;2023-04-01T02:21:53;16.50;;;10.38;;
38937;SDS011;24727;51.974;20.868;2023-04-01T02:24:23;20.65;;;11.05;;
38937;SDS011;24727;51.974;20.868;2023-04-01T02:26:52;24.65;;;12.48;;
38937;SDS011;24727;51.974;20.868;2023-04-01T02:29:22;15.23;;;9.88;;
38937;SDS011;24727;51.974;20.868;2023-04-01T02:31:51;16.75;;;9.90;;
38937;SDS011;24727;51.974;20.868;2023-04-01T02:34:19;12.80;;;8.35;;
38937;SDS011;24727;51.974;20.868;2023-04-01T02:36:47;14.70;;;10.00;;
38937;SDS011;24727;51.974;20.868;2023-04-01T02:39:14;16.35;;;10.77;;
38937;SDS011;24727;51.974;20.868;2023-04-01T02:41:41;15.25;;;9.95;;
38937;SDS011;24727;51.974;20.868;2023-04-01T02:44:09;24.63;;;12.48;;
38937;SDS011;24727;51.974;20.868;2023-04-01T02:46:38;17.52;;;11.15;;
38937;SDS011;24727;51.974;20.868;2023-04-01T02:49:05;19.80;;;12.32;;
38937;SDS011;24727;51.974;20.868;2023-04-01T02:51:32;20.88;;;12.57;;
38937;SDS011;24727;51.974;20.868;2023-04-01T02:53:59;20.95;;;12.65;;
38937;SDS011;24727;51.974;20.868;2023-04-01T02:56:26;20.33;;;12.57;;
38937;SDS011;24727;51.974;20.868;2023-04-01T02:58:52;25.20;;;15.40;;
38937;SDS011;24727;51.974;20.868;2023-04-01T03:01:19;28.13;;;15.75;;
38937;SDS011;24727;51.974;20.868;2023-04-01T03:03:46;28.05;;;15.77;;
38937;SDS011;24727;51.974;20.868;2023-04-01T03:06:13;24.55;;;15.73;;
38937;SDS011;24727;51.974;20.868;2023-04-01T03:08:40;25.30;;;16.17;;
38937;SDS011;24727;51.974;20.868;2023-04-01T03:11:08;28.17;;;15.55;;
38937;SDS011;24727;51.974;20.868;2023-04-01T03:13:36;36.45;;;16.92;;
38937;SDS011;24727;51.974;20.868;2023-04-01T03:16:04;29.58;;;15.60;;
38937;SDS011;24727;51.974;20.868;2023-04-01T03:18:31;27.55;;;15.95;;
38937;SDS011;24727;51.974;20.868;2023-04-01T03:21:20;26.00;;;16.40;;
38937;SDS011;24727;51.974;20.868;2023-04-01T03:23:46;29.02;;;17.55;;
38937;SDS011;24727;51.974;20.868;2023-04-01T03:26:13;34.17;;;19.30;;
38937;SDS011;24727;51.974;20.868;2023-04-01T03:28:40;35.90;;;20.63;;
38937;SDS011;24727;51.974;20.868;2023-04-01T03:31:06;39.70;;;22.38;;
38937;SDS011;24727;51.974;20.868;2023-04-01T03:33:32;39.50;;;22.17;;
38937;SDS011;24727;51.974;20.868;2023-04-01T03:36:00;39.42;;;21.67;;
38937;SDS011;24727;51.974;20.868;2023-04-01T03:38:26;41.58;;;21.63;;
38937;SDS011;24727;51.974;20.868;2023-04-01T03:40:53;36.85;;;20.58;;
38937;SDS011;24727;51.974;20.868;2023-04-01T03:43:19;47.15;;;22.38;;
38937;SDS011;24727;51.974;20.868;2023-04-01T03:45:48;45.33;;;22.98;;
38937;SDS011;24727;51.974;20.868;2023-04-01T03:48:16;41.40;;;22.50;;
38937;SDS011;24727;51.974;20.868;2023-04-01T03:50:43;43.70;;;24.20;;
38937;SDS011;24727;51.974;20.868;2023-04-01T03:53:11;40.17;;;22.25;;
38937;SDS011;24727;51.974;20.868;2023-04-01T03:55:39;46.88;;;25.58;;
38937;SDS011;24727;51.974;20.868;2023-04-01T03:58:05;41.25;;;22.55;;
38937;SDS011;24727;51.974;20.868;2023-04-01T04:00:32;42.72;;;23.08;;
38937;SDS011;24727;51.974;20.868;2023-04-01T04:02:58;39.63;;;22.52;;
38937;SDS011;24727;51.974;20.868;2023-04-01T04:05:25;40.97;;;23.55;;
38937;SDS011;24727;51.974;20.868;2023-04-01T04:07:54;44.35;;;22.33;;
38937;SDS011;24727;51.974;20.868;2023-04-01T04:10:22;42.60;;;22.67;;
38937;SDS011;24727;51.974;20.868;2023-04-01T04:12:50;45.47;;;23.83;;
38937;SDS011;24727;51.974;20.868;2023-04-01T04:15:16;43.50;;;23.85;;
38937;SDS011;24727;51.974;20.868;2023-04-01T04:17:44;38.70;;;22.73;;
38937;SDS011;24727;51.974;20.868;2023-04-01T04:20:11;46.70;;;24.15;;
38937;SDS011;24727;51.974;20.868;2023-04-01T04:22:38;42.83;;;23.02;;
38937;SDS011;24727;51.974;20.868;2023-04-01T04:25:05;45.25;;;23.83;;
38937;SDS011;24727;51.974;20.868;2023-04-01T04:27:32;42.97;;;23.20;;
38937;SDS011;24727;51.974;20.868;2023-04-01T04:29:58;46.72;;;23.88;;
38937;SDS011;24727;51.974;20.868;2023-04-01T04:32:24;49.97;;;23.83;;
38937;SDS011;24727;51.974;20.868;2023-04-01T04:34:50;43.28;;;22.67;;
38937;SDS011;24727;51.974;20.868;2023-04-01T04:37:16;45.00;;;22.95;;
38937;SDS011;24727;51.974;20.868;2023-04-01T04:39:42;38.58;;;19.67;;
38937;SDS011;24727;51.974;20.868;2023-04-01T04:42:09;32.38;;;17.80;;
38937;SDS011;24727;51.974;20.868;2023-04-01T04:44:35;38.03;;;19.98;;
38937;SDS011;24727;51.974;20.868;2023-04-01T04:47:01;32.05;;;18.65;;
38937;SDS011;24727;51.974;20.868;2023-04-01T04:49:27;30.83;;;18.35;;
38937;SDS011;24727;51.974;20.868;2023-04-01T04:51:53;32.22;;;18.67;;
38937;SDS011;24727;51.974;20.868;2023-04-01T04:54:25;29.98;;;19.38;;
38937;SDS011;24727;51.974;20.868;2023-04-01T04:56:52;30.75;;;17.73;;
38937;SDS011;24727;51.974;20.868;2023-04-01T04:59:19;29.13;;;17.95;;
38937;SDS011;24727;51.974;20.868;2023-04-01T05:01:46;28.13;;;17.67;;
38937;SDS011;24727;51.974;20.868;2023-04-01T05:04:12;31.17;;;17.48;;
38937;SDS011;24727;51.974;20.868;2023-04-01T05:06:38;31.15;;;18.50;;
38937;SDS011;24727;51.974;20.868;2023-04-01T05:09:10;39.90;;;20.23;;
38937;SDS011;24727;51.974;20.868;2023-04-01T05:11:36;28.10;;;16.85;;
38937;SDS011;24727;51.974;20.868;2023-04-01T05:14:02;39.17;;;19.23;;
38937;SDS011;24727;51.974;20.868;2023-04-01T05:16:28;34.53;;;20.38;;
38937;SDS011;24727;51.974;20.868;2023-04-01T05:18:55;32.75;;;19.17;;
38937;SDS011;24727;51.974;20.868;2023-04-01T05:21:21;35.42;;;20.33;;
38937;SDS011;24727;51.974;20.868;2023-04-01T05:23:47;35.15;;;21.23;;
38937;SDS011;24727;51.974;20.868;2023-04-01T05:26:14;33.47;;;21.25;;
38937;SDS011;24727;51.974;20.868;2023-04-01T05:28:40;38.88;;;22.17;;
38937;SDS011;24727;51.974;20.868;2023-04-01T05:31:07;35.17;;;21.77;;
38937;SDS011;24727;51.974;20.868;2023-04-01T05:33:33;40.85;;;22.25;;
38937;SDS011;24727;51.974;20.868;2023-04-01T05:38:36;35.40;;;21.27;;
38937;SDS011;24727;51.974;20.868;2023-04-01T05:41:02;35.97;;;21.60;;
38937;SDS011;24727;51.974;20.868;2023-04-01T05:43:28;39.17;;;22.52;;
38937;SDS011;24727;51.974;20.868;2023-04-01T05:48:30;39.25;;;21.77;;
38937;SDS011;24727;51.974;20.868;2023-04-01T05:50:57;38.63;;;22.00;;
38937;SDS011;24727;51.974;20.868;2023-04-01T05:53:23;36.20;;;22.42;;
38937;SDS011;24727;51.974;20.868;2023-04-01T05:55:50;37.60;;;22.20;;
38937;SDS011;24727;51.974;20.868;2023-04-01T05:58:16;34.05;;;21.10;;
38937;SDS011;24727;51.974;20.868;2023-04-01T06:00:42;34.95;;;19.80;;
38937;SDS011;24727;51.974;20.868;2023-04-01T06:03:08;29.30;;;17.85;;
38937;SDS011;24727;51.974;20.868;2023-04-01T06:05:38;28.02;;;17.73;;
38937;SDS011;24727;51.974;20.868;2023-04-01T06:08:15;28.05;;;19.02;;
38937;SDS011;24727;51.974;20.868;2023-04-01T06:16:12;25.25;;;16.63;;
38937;SDS011;24727;51.974;20.868;2023-04-01T06:21:50;28.95;;;15.98;;
38937;SDS011;24727;51.974;20.868;2023-04-01T06:31:15;26.00;;;17.13;;
38937;SDS011;24727;51.974;20.868;2023-04-01T06:44:56;22.83;;;14.30;;
38937;SDS011;24727;51.974;20.868;2023-04-01T06:50:47;20.13;;;14.68;;
38937;SDS011;24727;51.974;20.868;2023-04-01T06:56:17;20.27;;;13.70;;
38937;SDS011;24727;51.974;20.868;2023-04-01T06:58:49;25.15;;;16.33;;
38937;SDS011;24727;51.974;20.868;2023-04-01T07:01:37;22.90;;;15.30;;
38937;SDS011;24727;51.974;20.868;2023-04-01T07:04:14;26.45;;;16.67;;
38937;SDS011;24727;51.974;20.868;2023-04-01T07:09:18;21.63;;;14.93;;
38937;SDS011;24727;51.974;20.868;2023-04-01T07:12:00;20.58;;;14.02;;
38937;SDS011;24727;51.974;20.868;2023-04-01T07:14:36;21.50;;;14.63;;
38937;SDS011;24727;51.974;20.868;2023-04-01T07:20:00;20.90;;;13.98;;
38937;SDS011;24727;51.974;20.868;2023-04-01T07:22:45;23.40;;;14.10;;
38937;SDS011;24727;51.974;20.868;2023-04-01T07:25:21;25.17;;;14.35;;
38937;SDS011;24727;51.974;20.868;2023-04-01T07:28:13;21.52;;;13.98;;
38937;SDS011;24727;51.974;20.868;2023-04-01T07:30:44;20.92;;;14.70;;
38937;SDS011;24727;51.974;20.868;2023-04-01T07:45:05;20.85;;;13.82;;
38937;SDS011;24727;51.974;20.868;2023-04-01T07:50:59;20.17;;;13.65;;
38937;SDS011;24727;51.974;20.868;2023-04-01T07:53:34;20.15;;;12.80;;
38937;SDS011;24727;51.974;20.868;2023-04-01T07:59:04;20.52;;;13.07;;
38937;SDS011;24727;51.974;20.868;2023-04-01T08:07:29;21.38;;;13.55;;
38937;SDS011;24727;51.974;20.868;2023-04-01T08:10:14;16.95;;;12.00;;
38937;SDS011;24727;51.974;20.868;2023-04-01T08:12:47;19.65;;;13.30;;
38937;SDS011;24727;51.974;20.868;2023-04-01T08:15:32;19.83;;;13.23;;
38937;SDS011;24727;51.974;20.868;2023-04-01T08:18:26;19.60;;;13.15;;
38937;SDS011;24727;51.974;20.868;2023-04-01T08:21:06;17.33;;;12.45;;
38937;SDS011;24727;51.974;20.868;2023-04-01T08:23:57;18.42;;;12.98;;
38937;SDS011;24727;51.974;20.868;2023-04-01T08:28:59;15.43;;;11.25;;
38937;SDS011;24727;51.974;20.868;2023-04-01T08:34:26;14.73;;;10.48;;
38937;SDS011;24727;51.974;20.868;2023-04-01T08:37:20;15.43;;;10.90;;
38937;SDS011;24727;51.974;20.868;2023-04-01T08:39:55;16.92;;;10.20;;
38937;SDS011;24727;51.974;20.868;2023-04-01T08:48:19;14.48;;;10.18;;
38937;SDS011;24727;51.974;20.868;2023-04-01T08:56:18;14.50;;;10.55;;
38937;SDS011;24727;51.974;20.868;2023-04-01T09:01:58;16.77;;;11.32;;
38937;SDS011;24727;51.974;20.868;2023-04-01T09:24:26;13.50;;;9.23;;
38937;SDS011;24727;51.974;20.868;2023-04-01T09:27:28;15.27;;;10.52;;
38937;SDS011;24727;51.974;20.868;2023-04-01T09:35:48;15.05;;;11.77;;
38937;SDS011;24727;51.974;20.868;2023-04-01T09:41:32;14.40;;;10.38;;
38937;SDS011;24727;51.974;20.868;2023-04-01T09:44:44;16.48;;;11.57;;
38937;SDS011;24727;51.974;20.868;2023-04-01T10:12:32;14.40;;;10.25;;
38937;SDS011;24727;51.974;20.868;2023-04-01T10:38:19;9.15;;;6.55;;
38937;SDS011;24727;51.974;20.868;2023-04-01T10:41:13;9.32;;;5.68;;
38937;SDS011;24727;51.974;20.868;2023-04-01T11:01:51;10.13;;;7.18;;
38937;SDS011;24727;51.974;20.868;2023-04-01T11:10:34;8.52;;;6.47;;
38937;SDS011;24727;51.974;20.868;2023-04-01T11:27:48;4.45;;;3.22;;
38937;SDS011;24727;51.974;20.868;2023-04-01T11:36:35;5.57;;;3.50;;
38937;SDS011;24727;51.974;20.868;2023-04-01T11:39:33;5.82;;;4.63;;
38937;SDS011;24727;51.974;20.868;2023-04-01T11:53:57;15.23;;;8.20;;
38937;SDS011;24727;51.974;20.868;2023-04-01T11:59:26;11.57;;;7.28;;
38937;SDS011;24727;51.974;20.868;2023-04-01T12:07:27;12.90;;;8.32;;
38937;SDS011;24727;51.974;20.868;2023-04-01T12:10:18;12.95;;;8.38;;
38937;SDS011;24727;51.974;20.868;2023-04-01T12:13:02;10.52;;;7.55;;
38937;SDS011;24727;51.974;20.868;2023-04-01T12:18:18;10.88;;;6.80;;
38937;SDS011;24727;51.974;20.868;2023-04-01T12:29:42;10.85;;;6.80;;
38937;SDS011;24727;51.974;20.868;2023-04-01T12:32:35;11.50;;;7.80;;
38937;SDS011;24727;51.974;20.868;2023-04-01T12:38:42;8.48;;;6.60;;
38937;SDS011;24727;51.974;20.868;2023-04-01T12:44:07;9.57;;;6.47;;
38937;SDS011;24727;51.974;20.868;2023-04-01T12:52:11;10.27;;;6.88;;
38937;SDS011;24727;51.974;20.868;2023-04-01T13:09:18;9.90;;;7.25;;
38937;SDS011;24727;51.974;20.868;2023-04-01T13:11:57;12.75;;;7.68;;
38937;SDS011;24727;51.974;20.868;2023-04-01T13:17:57;10.98;;;6.85;;
38937;SDS011;24727;51.974;20.868;2023-04-01T13:23:07;8.18;;;6.22;;
38937;SDS011;24727;51.974;20.868;2023-04-01T13:26:29;9.82;;;6.70;;
38937;SDS011;24727;51.974;20.868;2023-04-01T13:34:17;12.18;;;7.55;;
38937;SDS011;24727;51.974;20.868;2023-04-01T13:36:58;8.20;;;5.57;;
38937;SDS011;24727;51.974;20.868;2023-04-01T13:39:57;7.20;;;5.43;;
38937;SDS011;24727;51.974;20.868;2023-04-01T13:56:57;4.57;;;3.70;;
38937;SDS011;24727;51.974;20.868;2023-04-01T13:59:37;7.17;;;3.40;;
38937;SDS011;24727;51.974;20.868;2023-04-01T14:22:25;5.65;;;4.53;;
38937;SDS011;24727;51.974;20.868;2023-04-01T14:25:01;6.35;;;4.03;;
38937;SDS011;24727;51.974;20.868;2023-04-01T14:27:46;5.40;;;4.13;;
38937;SDS011;24727;51.974;20.868;2023-04-01T14:30:41;5.70;;;4.55;;
38937;SDS011;24727;51.974;20.868;2023-04-01T14:36:17;19.00;;;12.48;;
38937;SDS011;24727;51.974;20.868;2023-04-01T14:39:22;13.80;;;9.02;;
38937;SDS011;24727;51.974;20.868;2023-04-01T14:50:45;11.30;;;6.50;;
38937;SDS011;24727;51.974;20.868;2023-04-01T14:56:09;6.07;;;4.15;;
38937;SDS011;24727;51.974;20.868;2023-04-01T14:58:43;2.72;;;2.40;;
38937;SDS011;24727;51.974;20.868;2023-04-01T15:01:19;2.22;;;1.63;;
38937;SDS011;24727;51.974;20.868;2023-04-01T15:12:26;7.75;;;3.65;;
38937;SDS011;24727;51.974;20.868;2023-04-01T15:15:21;5.18;;;3.72;;
38937;SDS011;24727;51.974;20.868;2023-04-01T15:21:06;5.50;;;4.10;;
38937;SDS011;24727;51.974;20.868;2023-04-01T15:27:10;8.45;;;4.95;;
38937;SDS011;24727;51.974;20.868;2023-04-01T15:36:05;4.97;;;3.75;;
38937;SDS011;24727;51.974;20.868;2023-04-01T15:39:03;3.67;;;2.85;;
38937;SDS011;24727;51.974;20.868;2023-04-01T15:41:43;5.85;;;3.47;;
38937;SDS011;24727;51.974;20.868;2023-04-01T15:44:44;4.00;;;2.53;;
38937;SDS011;24727;51.974;20.868;2023-04-01T15:55:28;5.18;;;2.90;;
38937;SDS011;24727;51.974;20.868;2023-04-01T16:00:49;3.43;;;2.40;;
38937;SDS011;24727;51.974;20.868;2023-04-01T16:06:34;3.50;;;2.55;;
38937;SDS011;24727;51.974;20.868;2023-04-01T16:09:37;5.47;;;2.90;;
38937;SDS011;24727;51.974;20.868;2023-04-01T16:12:15;4.18;;;2.97;;
38937;SDS011;24727;51.974;20.868;2023-04-01T16:20:46;5.78;;;3.70;;
38937;SDS011;24727;51.974;20.868;2023-04-01T16:37:28;8.02;;;3.95;;
38937;SDS011;24727;51.974;20.868;2023-04-01T16:43:42;7.13;;;4.00;;
38937;SDS011;24727;51.974;20.868;2023-04-01T16:55:08;3.83;;;2.30;;
38937;SDS011;24727;51.974;20.868;2023-04-01T16:57:20;2.65;;;2.22;;
38937;SDS011;24727;51.974;20.868;2023-04-01T16:59:58;4.28;;;2.40;;
38937;SDS011;24727;51.974;20.868;2023-04-01T17:02:35;4.88;;;3.20;;
38937;SDS011;24727;51.974;20.868;2023-04-01T17:05:11;5.10;;;3.00;;
38937;SDS011;24727;51.974;20.868;2023-04-01T17:07:44;3.38;;;2.85;;
38937;SDS011;24727;51.974;20.868;2023-04-01T17:10:32;3.97;;;2.85;;
38937;SDS011;24727;51.974;20.868;2023-04-01T17:33:33;5.63;;;4.85;;
38937;SDS011;24727;51.974;20.868;2023-04-01T17:35:58;30.98;;;17.58;;
38937;SDS011;24727;51.974;20.868;2023-04-01T17:38:48;6.55;;;4.32;;
38937;SDS011;24727;51.974;20.868;2023-04-01T17:49:30;6.00;;;4.50;;
38937;SDS011;24727;51.974;20.868;2023-04-01T17:54:41;5.47;;;4.05;;
38937;SDS011;24727;51.974;20.868;2023-04-01T18:00:23;5.18;;;3.70;;
38937;SDS011;24727;51.974;20.868;2023-04-01T18:11:21;6.63;;;3.63;;
38937;SDS011;24727;51.974;20.868;2023-04-01T18:22:59;4.78;;;3.60;;
38937;SDS011;24727;51.974;20.868;2023-04-01T18:25:49;5.38;;;4.00;;
38937;SDS011;24727;51.974;20.868;2023-04-01T18:36:40;4.68;;;3.80;;
38937;SDS011;24727;51.974;20.868;2023-04-01T18:39:17;5.55;;;3.90;;
38937;SDS011;24727;51.974;20.868;2023-04-01T18:55:43;6.57;;;4.43;;
38937;SDS011;24727;51.974;20.868;2023-04-01T19:01:11;6.57;;;4.60;;
38937;SDS011;24727;51.974;20.868;2023-04-01T19:12:02;5.43;;;3.92;;
38937;SDS011;24727;51.974;20.868;2023-04-01T19:17:32;7.15;;;4.78;;
38937;SDS011;24727;51.974;20.868;2023-04-01T19:20:31;7.07;;;4.70;;
38937;SDS011;24727;51.974;20.868;2023-04-01T19:31:59;7.05;;;4.70;;
38937;SDS011;24727;51.974;20.868;2023-04-01T19:37:33;7.03;;;4.55;;
38937;SDS011;24727;51.974;20.868;2023-04-01T19:45:47;9.40;;;6.15;;
38937;SDS011;24727;51.974;20.868;2023-04-01T20:02:52;10.50;;;7.30;;
38937;SDS011;24727;51.974;20.868;2023-04-01T20:08:32;9.40;;;6.47;;
38937;SDS011;24727;51.974;20.868;2023-04-01T20:14:00;9.30;;;6.30;;
38937;SDS011;24727;51.974;20.868;2023-04-01T20:16:55;9.73;;;6.50;;
38937;SDS011;24727;51.974;20.868;2023-04-01T20:19:29;10.02;;;6.70;;
38937;SDS011;24727;51.974;20.868;2023-04-01T20:22:55;9.82;;;6.43;;
38937;SDS011;24727;51.974;20.868;2023-04-01T20:24:59;11.68;;;7.38;;
38937;SDS011;24727;51.974;20.868;2023-04-01T20:27:41;10.90;;;7.47;;
38937;SDS011;24727;51.974;20.868;2023-04-01T20:30:26;10.15;;;7.32;;
38937;SDS011;24727;51.974;20.868;2023-04-01T20:33:06;9.60;;;7.05;;
38937;SDS011;24727;51.974;20.868;2023-04-01T20:52:24;16.33;;;7.90;;
38937;SDS011;24727;51.974;20.868;2023-04-01T21:00:38;10.73;;;7.53;;
38937;SDS011;24727;51.974;20.868;2023-04-01T21:05:59;11.23;;;8.68;;
38937;SDS011;24727;51.974;20.868;2023-04-01T21:08:44;12.50;;;7.90;;
38937;SDS011;24727;51.974;20.868;2023-04-01T21:11:35;11.02;;;7.32;;
38937;SDS011;24727;51.974;20.868;2023-04-01T21:23:08;10.88;;;7.80;;
38937;SDS011;24727;51.974;20.868;2023-04-01T21:25:46;9.82;;;7.28;;
38937;SDS011;24727;51.974;20.868;2023-04-01T21:46:12;12.50;;;8.45;;
38937;SDS011;24727;51.974;20.868;2023-04-01T22:07:40;9.52;;;6.70;;
38937;SDS011;24727;51.974;20.868;2023-04-01T22:13:10;10.75;;;7.18;;
38937;SDS011;24727;51.974;20.868;2023-04-01T22:16:03;8.30;;;6.70;;
38937;SDS011;24727;51.974;20.868;2023-04-01T22:18:33;8.43;;;6.00;;
38937;SDS011;24727;51.974;20.868;2023-04-01T22:24:21;11.20;;;7.70;;
38937;SDS011;24727;51.974;20.868;2023-04-01T22:27:07;13.68;;;8.48;;
38937;SDS011;24727;51.974;20.868;2023-04-01T22:32:23;12.48;;;8.32;;
38937;SDS011;24727;51.974;20.868;2023-04-01T22:35:07;14.93;;;9.18;;
38937;SDS011;24727;51.974;20.868;2023-04-01T22:40:25;13.10;;;7.47;;
38937;SDS011;24727;51.974;20.868;2023-04-01T22:43:16;12.50;;;8.07;;
38937;SDS011;24727;51.974;20.868;2023-04-01T22:46:15;10.63;;;7.38;;
38937;SDS011;24727;51.974;20.868;2023-04-01T22:51:42;11.35;;;7.82;;
38937;SDS011;24727;51.974;20.868;2023-04-01T22:54:28;15.93;;;8.85;;
38937;SDS011;24727;51.974;20.868;2023-04-01T22:57:03;16.17;;;8.88;;
38937;SDS011;24727;51.974;20.868;2023-04-01T23:02:25;16.50;;;9.40;;
38937;SDS011;24727;51.974;20.868;2023-04-01T23:04:59;15.27;;;9.05;;
38937;SDS011;24727;51.974;20.868;2023-04-01T23:07:34;13.48;;;8.50;;
38937;SDS011;24727;51.974;20.868;2023-04-01T23:10:22;19.30;;;10.85;;
38937;SDS011;24727;51.974;20.868;2023-04-01T23:13:10;18.08;;;9.70;;
38937;SDS011;24727;51.974;20.868;2023-04-01T23:15:42;13.93;;;9.32;;
38937;SDS011;24727;51.974;20.868;2023-04-01T23:29:19;12.15;;;7.53;;
38937;SDS011;24727;51.974;20.868;2023-04-01T23:32:13;9.70;;;6.70;;
38937;SDS011;24727;51.974;20.868;2023-04-01T23:34:39;10.75;;;6.90;;
38937;SDS011;24727;51.974;20.868;2023-04-01T23:37:16;10.45;;;6.30;;
38937;SDS011;24727;51.974;20.868;2023-04-01T23:39:54;11.07;;;6.95;;
38937;SDS011;24727;51.974;20.868;2023-04-01T23:45:13;12.32;;;6.28;;
38937;SDS011;24727;51.974;20.868;2023-04-01T23:47:45;14.25;;;7.22;;
38937;SDS011;24727;51.974;20.868;2023-04-01T23:50:18;11.95;;;7.15;;
38937;SDS011;24727;51.974;20.868;2023-04-01T23:52:52;11.27;;;6.90;;
38937;SDS011;24727;51.974;20.868;2023-04-01T23:55:30;10.25;;;6.65;;
